Time;durP1;ratioP1;P1;durP2;ratioP2;P2;SDS_P1;SDS_P2;PMS_P1;PMS_P2;Temp;Humidity;BMP_temperature;BMP_pressure;BME280_temperature;BME280_humidity;BME280_pressure;Samples;Min_cycle;Max_cycle;Signal;HPM_P1;HPM_P2
2022/12/09 00:00:00;;;;;;;0.27;0.27;;;0.60;99.90;;;;;;5053441;28;20534;-65
2022/12/09 00:02:25;;;;;;;0.00;0.00;;;0.60;99.90;;;;;;5053403;28;20174;-65
2022/12/09 00:04:51;;;;;;;0.00;0.00;;;0.60;99.90;;;;;;5053316;28;20174;-65
2022/12/09 00:07:16;;;;;;;0.00;0.00;;;0.60;99.90;;;;;;5053430;28;20193;-65
2022/12/09 00:09:42;;;;;;;0.13;0.13;;;0.50;99.90;;;;;;5053150;28;20170;-65
2022/12/09 00:12:07;;;;;;;0.00;0.00;;;0.50;99.90;;;;;;5053144;28;20228;-64
2022/12/09 00:14:33;;;;;;;0.20;0.20;;;0.50;99.90;;;;;;5053236;28;20182;-64
2022/12/09 00:16:58;;;;;;;0.00;0.00;;;0.50;99.90;;;;;;5052985;28;20182;-65
2022/12/09 00:19:24;;;;;;;0.30;0.30;;;0.40;99.90;;;;;;5053225;28;20190;-65
2022/12/09 00:21:49;;;;;;;0.00;0.00;;;0.40;99.90;;;;;;5052961;28;20198;-65
2022/12/09 00:24:15;;;;;;;0.00;0.00;;;0.40;99.90;;;;;;5052939;28;20236;-65
2022/12/09 00:26:41;;;;;;;0.00;0.00;;;0.30;99.90;;;;;;5051691;28;20641;-65
2022/12/09 00:29:07;;;;;;;0.60;0.53;;;0.30;99.90;;;;;;5052941;28;20212;-65
2022/12/09 00:31:34;;;;;;;0.20;0.20;;;0.30;99.90;;;;;;5052468;28;20188;-65
2022/12/09 00:34:04;;;;;;;0.37;0.37;;;0.20;99.90;;;;;;5052540;28;20185;-65
2022/12/09 00:36:29;;;;;;;0.00;0.00;;;0.20;99.90;;;;;;5052301;28;20189;-64
2022/12/09 00:38:57;;;;;;;0.57;0.57;;;0.20;99.90;;;;;;5051523;28;20217;-64
2022/12/09 00:41:22;;;;;;;0.00;0.00;;;0.20;99.90;;;;;;5052710;28;20212;-65
2022/12/09 00:43:48;;;;;;;0.00;0.00;;;0.20;99.90;;;;;;5051343;28;20217;-64
2022/12/09 00:46:15;;;;;;;0.00;0.00;;;0.10;99.90;;;;;;5052679;28;20177;-65
2022/12/09 00:48:41;;;;;;;0.00;0.00;;;0.10;99.90;;;;;;5052523;28;20181;-65
2022/12/09 00:51:09;;;;;;;0.20;0.20;;;0.10;99.90;;;;;;5052625;28;20181;-65
2022/12/09 00:53:35;;;;;;;0.00;0.00;;;0.00;99.90;;;;;;5052429;28;20180;-65
2022/12/09 00:56:00;;;;;;;0.07;0.07;;;0.00;99.90;;;;;;5052257;28;20529;-65
2022/12/09 00:58:26;;;;;;;0.00;0.00;;;0.00;99.90;;;;;;5052316;28;20571;-65
2022/12/09 01:00:54;;;;;;;0.20;0.20;;;-0.10;99.90;;;;;;5051704;28;20182;-65
2022/12/09 01:03:20;;;;;;;0.00;0.00;;;-0.10;99.90;;;;;;5050732;28;20235;-65
2022/12/09 01:05:46;;;;;;;0.10;0.10;;;-0.10;99.90;;;;;;5032403;28;20269;-65
2022/12/09 01:08:13;;;;;;;0.30;0.30;;;-0.20;99.90;;;;;;5034205;28;20174;-64
2022/12/09 01:10:40;;;;;;;0.60;0.60;;;-0.20;99.90;;;;;;5051266;28;20213;-65
2022/12/09 01:13:06;;;;;;;3.40;1.47;;;-0.20;99.90;;;;;;5051493;28;20189;-65
2022/12/09 01:15:31;;;;;;;0.00;0.00;;;-0.20;99.90;;;;;;5051280;28;20239;-65
2022/12/09 01:17:57;;;;;;;0.00;0.00;;;-0.30;99.90;;;;;;5051613;28;20209;-65
2022/12/09 01:20:23;;;;;;;0.07;0.07;;;-0.30;99.90;;;;;;5051589;28;20695;-65
2022/12/09 01:22:48;;;;;;;0.13;0.13;;;-0.30;99.90;;;;;;5050682;28;20269;-65
2022/12/09 01:25:14;;;;;;;1.43;0.40;;;-0.30;99.90;;;;;;5050981;28;20304;-65
2022/12/09 01:27:40;;;;;;;0.00;0.00;;;-0.40;99.90;;;;;;5051024;28;20256;-65
2022/12/09 01:30:07;;;;;;;0.00;0.00;;;-0.40;99.90;;;;;;5051249;28;20279;-65
2022/12/09 01:32:33;;;;;;;0.13;0.13;;;-0.40;99.90;;;;;;5051461;28;20177;-66
2022/12/09 01:34:58;;;;;;;0.10;0.10;;;-0.40;99.90;;;;;;5050965;28;20272;-65
2022/12/09 01:37:24;;;;;;;0.00;0.00;;;-0.40;99.90;;;;;;5050005;28;20205;-65
2022/12/09 01:39:49;;;;;;;0.17;0.17;;;-0.50;99.90;;;;;;5051332;28;20217;-65
2022/12/09 01:42:21;;;;;;;0.00;0.00;;;-0.50;99.90;;;;;;5051603;28;20599;-65
2022/12/09 01:45:20;;;;;;;0.10;0.10;;;-0.50;99.90;;;;;;5051116;28;20402;-65
2022/12/09 01:47:47;;;;;;;0.10;0.10;;;-0.50;99.90;;;;;;5040953;28;20177;-65
2022/12/09 01:50:14;;;;;;;0.00;0.00;;;-0.50;99.90;;;;;;5050657;28;20174;-65
2022/12/09 01:52:39;;;;;;;0.00;0.00;;;-0.50;99.90;;;;;;5051259;28;20173;-64
2022/12/09 01:55:06;;;;;;;0.00;0.00;;;-0.50;99.90;;;;;;5050549;28;20181;-64
2022/12/09 01:57:32;;;;;;;0.00;0.00;;;-0.50;99.90;;;;;;5042754;28;20213;-64
2022/12/09 01:59:57;;;;;;;0.00;0.00;;;-0.60;99.90;;;;;;5050966;28;20212;-65
2022/12/09 02:02:27;;;;;;;0.00;0.00;;;-0.60;99.90;;;;;;5050712;28;20338;-65
2022/12/09 02:04:53;;;;;;;0.00;0.00;;;-0.60;99.90;;;;;;5044878;28;20591;-65
2022/12/09 02:07:19;;;;;;;0.20;0.20;;;-0.60;99.90;;;;;;5050996;28;20255;-64
2022/12/09 02:09:45;;;;;;;0.00;0.00;;;-0.60;99.90;;;;;;5051000;28;20649;-65
2022/12/09 02:12:14;;;;;;;0.00;0.00;;;-0.60;99.90;;;;;;5051133;28;20708;-65
2022/12/09 02:15:02;;;;;;;0.20;0.20;;;-0.60;99.90;;;;;;5054537;28;20292;-65
2022/12/09 02:17:38;;;;;;;0.00;0.00;;;-0.70;99.90;;;;;;5052505;28;20208;-64
2022/12/09 02:20:27;;;;;;;0.00;0.00;;;-0.70;99.90;;;;;;5055108;28;20185;-65
2022/12/09 02:23:01;;;;;;;0.00;0.00;;;-0.70;99.90;;;;;;5054336;28;21178;-64
2022/12/09 02:25:58;;;;;;;0.00;0.00;;;-0.70;99.90;;;;;;5054836;28;20272;-64
2022/12/09 02:29:00;;;;;;;0.00;0.00;;;-0.70;99.90;;;;;;5054118;28;20286;-64
2022/12/09 02:31:35;;;;;;;0.20;0.20;;;-0.70;99.90;;;;;;5041632;28;20208;-65
2022/12/09 02:34:05;;;;;;;0.00;0.00;;;-0.70;99.90;;;;;;5055154;28;20282;-64
2022/12/09 02:36:38;;;;;;;0.10;0.10;;;-0.80;99.90;;;;;;5055308;28;20190;-65
2022/12/09 02:39:06;;;;;;;0.00;0.00;;;-0.80;99.90;;;;;;5047558;28;20245;-65
2022/12/09 02:41:34;;;;;;;0.00;0.00;;;-0.80;99.90;;;;;;5054689;28;20189;-65
2022/12/09 02:44:10;;;;;;;0.00;0.00;;;-0.90;99.90;;;;;;5054568;28;20268;-65
2022/12/09 02:46:39;;;;;;;0.00;0.00;;;-0.90;99.90;;;;;;5053666;28;20186;-65
2022/12/09 02:49:04;;;;;;;0.00;0.00;;;-1.00;99.90;;;;;;5054588;28;20174;-64
2022/12/09 02:51:33;;;;;;;0.00;0.00;;;-1.00;99.90;;;;;;5054702;28;20177;-65
2022/12/09 02:54:06;;;;;;;0.00;0.00;;;-1.00;99.90;;;;;;5054235;28;20307;-65
2022/12/09 02:56:33;;;;;;;0.00;0.00;;;-1.00;99.90;;;;;;5047586;28;20201;-64
2022/12/09 02:58:59;;;;;;;0.00;0.00;;;-1.10;99.90;;;;;;5054292;28;20726;-65
2022/12/09 03:02:03;;;;;;;0.00;0.00;;;-1.10;99.90;;;;;;5054296;28;20186;-65
2022/12/09 03:04:30;;;;;;;0.00;0.00;;;-1.10;99.90;;;;;;5054149;28;20258;-65
2022/12/09 03:07:10;;;;;;;0.20;0.20;;;-1.10;99.90;;;;;;5054371;28;20173;-65
2022/12/09 03:09:43;;;;;;;0.10;0.10;;;-1.10;99.90;;;;;;5054174;28;20295;-65
2022/12/09 03:12:10;;;;;;;0.00;0.00;;;-1.20;99.90;;;;;;5054029;28;20692;-65
2022/12/09 03:14:45;;;;;;;0.20;0.20;;;-1.20;99.90;;;;;;5053817;28;20664;-66
2022/12/09 03:17:20;;;;;;;0.00;0.00;;;-1.10;99.90;;;;;;5053734;28;20191;-65
2022/12/09 03:20:10;;;;;;;0.20;0.20;;;-1.20;99.90;;;;;;5053946;28;20239;-65
2022/12/09 03:22:40;;;;;;;0.00;0.00;;;-1.20;99.90;;;;;;5053949;28;20956;-65
2022/12/09 03:25:35;;;;;;;0.00;0.00;;;-1.20;99.90;;;;;;5053121;28;20185;-65
2022/12/09 03:28:04;;;;;;;0.07;0.07;;;-1.20;99.90;;;;;;5053548;28;20284;-65
2022/12/09 03:30:32;;;;;;;0.10;0.10;;;-1.20;99.90;;;;;;5053624;28;20309;-65
2022/12/09 03:32:58;;;;;;;0.00;0.00;;;-1.20;99.90;;;;;;5053724;28;20190;-65
2022/12/09 03:35:33;;;;;;;0.00;0.00;;;-1.20;99.90;;;;;;5053467;28;20177;-65
2022/12/09 03:38:03;;;;;;;0.00;0.00;;;-1.30;99.90;;;;;;5053379;28;20302;-65
2022/12/09 03:40:31;;;;;;;0.40;0.40;;;-1.30;99.90;;;;;;5053425;28;20666;-65
2022/12/09 03:43:03;;;;;;;0.53;0.40;;;-1.30;99.90;;;;;;5052916;28;20542;-65
2022/12/09 03:45:29;;;;;;;0.67;0.67;;;-1.30;99.90;;;;;;5050481;28;20188;-65
2022/12/09 03:47:55;;;;;;;0.00;0.00;;;-1.30;99.90;;;;;;5052673;28;20205;-64
2022/12/09 03:50:26;;;;;;;0.00;0.00;;;-1.30;99.90;;;;;;5052136;28;20278;-65
2022/12/09 03:53:05;;;;;;;0.00;0.00;;;-1.30;99.90;;;;;;5052095;28;20181;-65
2022/12/09 03:56:01;;;;;;;0.20;0.20;;;-1.30;99.90;;;;;;5052997;28;20675;-65
2022/12/09 03:58:30;;;;;;;2.20;0.37;;;-1.40;99.90;;;;;;5033796;28;20222;-65
2022/12/09 04:00:55;;;;;;;0.20;0.20;;;-1.40;99.90;;;;;;5053192;28;20261;-65
2022/12/09 04:03:21;;;;;;;0.00;0.00;;;-1.40;99.90;;;;;;5053264;28;20208;-65
2022/12/09 04:05:46;;;;;;;0.00;0.00;;;-1.50;99.90;;;;;;5053376;28;20173;-65
2022/12/09 04:08:12;;;;;;;0.00;0.00;;;-1.50;99.90;;;;;;5051776;28;20640;-65
2022/12/09 04:10:38;;;;;;;0.27;0.27;;;-1.50;99.90;;;;;;5052606;28;20312;-66
2022/12/09 04:13:03;;;;;;;0.03;0.03;;;-1.50;99.90;;;;;;5053268;28;20181;-65
2022/12/09 04:15:29;;;;;;;0.00;0.00;;;-1.50;99.90;;;;;;5052367;28;20170;-65
2022/12/09 04:17:54;;;;;;;0.00;0.00;;;-1.50;99.90;;;;;;5053125;28;20213;-65
2022/12/09 04:20:20;;;;;;;0.00;0.00;;;-1.50;99.90;;;;;;5052881;28;20535;-65
2022/12/09 04:22:45;;;;;;;0.00;0.00;;;-1.50;99.90;;;;;;5052744;28;20235;-65
2022/12/09 04:25:11;;;;;;;0.00;0.00;;;-1.50;99.90;;;;;;5052930;28;20257;-65
2022/12/09 04:27:36;;;;;;;0.00;0.00;;;-1.50;99.90;;;;;;5051497;28;20197;-65
2022/12/09 04:30:03;;;;;;;0.10;0.10;;;-1.50;99.90;;;;;;5052426;28;20706;-65
2022/12/09 04:32:30;;;;;;;0.00;0.00;;;-1.50;99.90;;;;;;5052693;28;20186;-65
2022/12/09 04:34:56;;;;;;;0.00;0.00;;;-1.50;99.90;;;;;;5052187;28;20173;-65
2022/12/09 04:37:21;;;;;;;0.00;0.00;;;-1.50;99.90;;;;;;5052294;28;20251;-65
2022/12/09 04:39:47;;;;;;;0.13;0.13;;;-1.50;99.90;;;;;;5052601;28;20261;-64
2022/12/09 04:42:12;;;;;;;0.00;0.00;;;-1.50;99.90;;;;;;5051772;28;20291;-64
2022/12/09 04:44:38;;;;;;;0.00;0.00;;;-1.50;99.90;;;;;;5052165;28;20185;-64
2022/12/09 04:47:03;;;;;;;0.00;0.00;;;-1.50;99.90;;;;;;5052012;28;20170;-63
2022/12/09 04:49:30;;;;;;;0.00;0.00;;;-1.50;99.90;;;;;;5052350;28;20275;-66
2022/12/09 04:51:56;;;;;;;0.00;0.00;;;-1.50;99.90;;;;;;5052257;28;20178;-66
2022/12/09 04:54:21;;;;;;;0.13;0.13;;;-1.50;99.90;;;;;;5052044;28;20327;-66
2022/12/09 04:56:48;;;;;;;0.27;0.27;;;-1.50;99.90;;;;;;5052047;28;20189;-64
2022/12/09 04:59:13;;;;;;;0.23;0.23;;;-1.50;99.90;;;;;;5051625;28;20847;-62
2022/12/09 05:01:39;;;;;;;0.03;0.03;;;-1.50;99.90;;;;;;5051290;28;20188;-62
2022/12/09 05:04:05;;;;;;;0.00;0.00;;;-1.50;99.90;;;;;;5044662;28;20185;-66
2022/12/09 05:06:30;;;;;;;0.20;0.20;;;-1.50;99.90;;;;;;5032364;28;20233;-65
2022/12/09 05:08:56;;;;;;;0.00;0.00;;;-1.50;99.90;;;;;;5044751;28;20188;-67
2022/12/09 05:11:22;;;;;;;0.20;0.20;;;-1.50;99.90;;;;;;5051929;28;20233;-65
2022/12/09 05:13:49;;;;;;;0.70;0.43;;;-1.50;99.90;;;;;;5051396;28;20184;-64
2022/12/09 05:16:16;;;;;;;0.00;0.00;;;-1.40;99.90;;;;;;5052075;28;20227;-68
2022/12/09 05:18:42;;;;;;;1.17;0.73;;;-1.50;99.90;;;;;;5051967;28;20209;-68
2022/12/09 05:21:11;;;;;;;0.00;0.00;;;-1.50;99.90;;;;;;5051500;28;20299;-68
2022/12/09 05:23:37;;;;;;;0.10;0.10;;;-1.50;99.90;;;;;;5050511;28;20177;-68
2022/12/09 05:26:08;;;;;;;0.00;0.00;;;-1.50;99.90;;;;;;5051789;28;20177;-68
2022/12/09 05:28:34;;;;;;;0.00;0.00;;;-1.40;99.90;;;;;;5052061;28;20173;-68
2022/12/09 05:31:01;;;;;;;0.00;0.00;;;-1.40;99.90;;;;;;5052105;28;20180;-68
2022/12/09 05:33:28;;;;;;;0.00;0.00;;;-1.40;99.90;;;;;;5051647;28;20193;-69
2022/12/09 05:35:53;;;;;;;0.00;0.00;;;-1.40;99.90;;;;;;5051883;28;20218;-68
2022/12/09 05:38:19;;;;;;;0.00;0.00;;;-1.40;99.90;;;;;;5051808;28;20213;-68
2022/12/09 05:40:44;;;;;;;0.00;0.00;;;-1.40;99.90;;;;;;5051873;28;20283;-68
2022/12/09 05:43:10;;;;;;;0.97;0.40;;;-1.40;99.90;;;;;;5050594;28;20651;-68
2022/12/09 05:45:35;;;;;;;0.10;0.10;;;-1.40;99.90;;;;;;5051549;28;20208;-68
2022/12/09 05:48:01;;;;;;;0.03;0.03;;;-1.50;99.90;;;;;;5053523;28;20170;-68
2022/12/09 05:50:26;;;;;;;0.10;0.10;;;-1.50;99.90;;;;;;5055978;28;20184;-68
2022/12/09 05:52:52;;;;;;;0.30;0.30;;;-1.40;99.90;;;;;;5054573;28;20181;-68
2022/12/09 05:55:17;;;;;;;0.00;0.00;;;-1.50;99.90;;;;;;5055905;28;20282;-68
2022/12/09 05:57:43;;;;;;;0.27;0.27;;;-1.50;99.90;;;;;;5055542;28;20201;-68
2022/12/09 06:00:09;;;;;;;0.83;0.83;;;-1.50;99.90;;;;;;5055718;28;20196;-68
2022/12/09 06:02:35;;;;;;;0.10;0.10;;;-1.50;99.90;;;;;;5055788;28;20299;-68
2022/12/09 06:05:01;;;;;;;0.07;0.07;;;-1.50;99.90;;;;;;5040550;28;20190;-68
2022/12/09 06:07:27;;;;;;;0.00;0.00;;;-1.40;99.90;;;;;;5035810;28;20205;-68
2022/12/09 06:09:52;;;;;;;0.00;0.00;;;-1.40;99.90;;;;;;5035576;28;20630;-68
2022/12/09 06:12:18;;;;;;;0.00;0.00;;;-1.50;99.90;;;;;;5035566;28;20261;-68
2022/12/09 06:14:43;;;;;;;0.10;0.10;;;-1.50;99.90;;;;;;5035457;28;20646;-68
2022/12/09 06:17:09;;;;;;;0.00;0.00;;;-1.40;99.90;;;;;;5035399;28;20710;-68
2022/12/09 06:19:34;;;;;;;0.00;0.00;;;-1.40;99.90;;;;;;5034244;28;20720;-68
2022/12/09 06:22:00;;;;;;;0.43;0.43;;;-1.50;99.90;;;;;;5035502;28;20305;-68
2022/12/09 06:24:25;;;;;;;0.67;0.47;;;-1.40;99.90;;;;;;5035418;28;20629;-68
2022/12/09 06:26:54;;;;;;;0.10;0.10;;;-1.40;99.90;;;;;;5035260;28;20194;-68
2022/12/09 06:29:20;;;;;;;0.27;0.27;;;-1.40;99.90;;;;;;5035332;28;20174;-68
2022/12/09 06:31:45;;;;;;;0.13;0.13;;;-1.40;99.90;;;;;;5035220;28;20182;-68
2022/12/09 06:34:11;;;;;;;0.67;0.53;;;-1.40;99.90;;;;;;5035110;28;20177;-68
2022/12/09 06:36:36;;;;;;;0.00;0.00;;;-1.40;99.90;;;;;;5035180;28;20604;-68
2022/12/09 06:39:03;;;;;;;0.07;0.07;;;-1.40;99.90;;;;;;5035031;28;20625;-68
2022/12/09 06:41:29;;;;;;;0.00;0.00;;;-1.40;99.90;;;;;;5035032;28;20272;-68
2022/12/09 06:43:58;;;;;;;0.17;0.17;;;-1.30;99.90;;;;;;5054548;28;20257;-68
2022/12/09 06:46:24;;;;;;;0.20;0.20;;;-1.30;99.90;;;;;;5054887;28;20176;-68
2022/12/09 06:48:51;;;;;;;0.00;0.00;;;-1.40;99.90;;;;;;5054709;28;20235;-68
2022/12/09 06:51:17;;;;;;;0.10;0.10;;;-1.40;99.90;;;;;;5054778;28;20399;-68
2022/12/09 06:53:44;;;;;;;0.00;0.00;;;-1.40;99.90;;;;;;5054355;28;20178;-68
2022/12/09 06:56:11;;;;;;;0.00;0.00;;;-1.40;99.90;;;;;;5049161;28;20182;-68
2022/12/09 06:58:37;;;;;;;0.00;0.00;;;-1.40;99.90;;;;;;5049971;28;20216;-68
2022/12/09 07:01:14;;;;;;;0.00;0.00;;;-1.40;99.90;;;;;;5052142;28;20181;-68
2022/12/09 07:03:41;;;;;;;0.00;0.00;;;-1.40;99.90;;;;;;5052888;28;20276;-68
2022/12/09 07:06:29;;;;;;;0.00;0.00;;;-1.30;99.90;;;;;;5054198;28;20706;-68
2022/12/09 07:08:57;;;;;;;0.00;0.00;;;-1.30;99.90;;;;;;5051988;28;20169;-68
2022/12/09 07:11:23;;;;;;;0.00;0.00;;;-1.30;99.90;;;;;;5054290;28;20657;-68
2022/12/09 07:13:49;;;;;;;0.10;0.10;;;-1.40;99.90;;;;;;5053176;28;20216;-68
2022/12/09 07:16:14;;;;;;;0.00;0.00;;;-1.40;99.90;;;;;;5054231;28;20181;-68
2022/12/09 07:18:40;;;;;;;0.00;0.00;;;-1.40;99.90;;;;;;5053869;28;20304;-68
2022/12/09 07:21:10;;;;;;;0.10;0.10;;;-1.40;99.90;;;;;;5054210;28;20181;-67
2022/12/09 07:23:36;;;;;;;0.10;0.10;;;-1.30;99.90;;;;;;5054059;28;20645;-68
2022/12/09 07:26:04;;;;;;;0.53;0.30;;;-1.30;99.90;;;;;;5053462;28;20272;-68
2022/12/09 07:28:30;;;;;;;0.00;0.00;;;-1.30;99.90;;;;;;5053966;28;20264;-68
2022/12/09 07:30:56;;;;;;;0.30;0.30;;;-1.30;99.90;;;;;;5054198;28;20232;-68
2022/12/09 07:33:22;;;;;;;1.00;0.40;;;-1.20;99.90;;;;;;5054097;28;20177;-68
2022/12/09 07:35:47;;;;;;;0.00;0.00;;;-1.20;99.90;;;;;;5054089;28;20265;-68
2022/12/09 07:38:13;;;;;;;0.00;0.00;;;-1.20;99.90;;;;;;5054019;28;20209;-68
2022/12/09 07:40:39;;;;;;;0.10;0.10;;;-1.20;99.90;;;;;;5054028;28;20176;-68
2022/12/09 07:43:06;;;;;;;0.30;0.30;;;-1.20;99.90;;;;;;5053943;28;20182;-69
2022/12/09 07:45:35;;;;;;;0.00;0.00;;;-1.10;99.90;;;;;;5053975;28;20234;-69
2022/12/09 07:48:01;;;;;;;0.00;0.00;;;-1.10;99.90;;;;;;5053898;28;20667;-68
2022/12/09 07:50:27;;;;;;;0.03;0.03;;;-1.00;99.90;;;;;;5053941;28;20178;-68
2022/12/09 07:52:52;;;;;;;0.10;0.10;;;-1.00;99.90;;;;;;5053733;28;20178;-68
2022/12/09 07:55:18;;;;;;;0.00;0.00;;;-1.00;99.90;;;;;;5053724;28;20174;-68
2022/12/09 07:57:43;;;;;;;0.30;0.30;;;-0.90;99.90;;;;;;5053499;28;20241;-68
2022/12/09 08:00:09;;;;;;;0.03;0.03;;;-0.90;99.90;;;;;;5053816;28;20547;-69
2022/12/09 08:02:35;;;;;;;0.10;0.10;;;-0.90;99.90;;;;;;5053632;28;20177;-69
2022/12/09 08:05:01;;;;;;;0.40;0.40;;;-0.90;99.90;;;;;;5038418;28;20189;-68
2022/12/09 08:07:27;;;;;;;0.77;0.77;;;-0.90;99.90;;;;;;5033740;28;20526;-68
2022/12/09 08:09:55;;;;;;;0.20;0.20;;;-0.80;99.90;;;;;;5033302;28;20208;-69
2022/12/09 08:12:21;;;;;;;0.03;0.03;;;-0.80;99.90;;;;;;5033180;28;20272;-68
2022/12/09 08:14:46;;;;;;;0.10;0.10;;;-0.80;99.90;;;;;;5033540;28;20638;-69
2022/12/09 08:17:12;;;;;;;0.10;0.10;;;-0.80;99.90;;;;;;5033584;28;20174;-68
2022/12/09 08:19:37;;;;;;;0.00;0.00;;;-0.70;99.90;;;;;;5033336;28;20227;-68
2022/12/09 08:22:03;;;;;;;0.20;0.20;;;-0.70;99.90;;;;;;5033346;28;20170;-68
2022/12/09 08:24:29;;;;;;;0.33;0.33;;;-0.60;99.90;;;;;;5033408;28;20260;-68
2022/12/09 08:26:54;;;;;;;0.00;0.00;;;-0.60;99.90;;;;;;5033234;28;20174;-68
2022/12/09 08:29:20;;;;;;;0.00;0.00;;;-0.50;99.90;;;;;;5033229;28;20174;-69
2022/12/09 08:31:45;;;;;;;0.30;0.30;;;-0.50;99.90;;;;;;5033122;28;20239;-68
2022/12/09 08:34:11;;;;;;;0.00;0.00;;;-0.40;99.90;;;;;;5033068;28;20438;-69
2022/12/09 08:36:37;;;;;;;0.10;0.10;;;-0.40;99.90;;;;;;5032960;28;20609;-68
2022/12/09 08:39:04;;;;;;;0.00;0.00;;;-0.30;99.90;;;;;;5033105;28;20253;-68
2022/12/09 08:41:35;;;;;;;0.10;0.10;;;-0.30;99.90;;;;;;5033049;28;20174;-68
2022/12/09 08:44:07;;;;;;;0.00;0.00;;;-0.30;99.90;;;;;;5033019;28;20197;-69
2022/12/09 08:46:34;;;;;;;0.10;0.10;;;-0.20;99.90;;;;;;5032840;28;20182;-69
2022/12/09 08:49:02;;;;;;;0.00;0.00;;;-0.20;99.90;;;;;;5032754;28;20181;-68
2022/12/09 08:51:29;;;;;;;0.67;0.67;;;-0.20;99.90;;;;;;5031587;28;20205;-68
2022/12/09 08:53:56;;;;;;;0.00;0.00;;;-0.10;99.90;;;;;;5032601;28;20174;-68
2022/12/09 08:56:22;;;;;;;0.10;0.10;;;-0.10;99.90;;;;;;5039812;28;20225;-69
2022/12/09 08:58:47;;;;;;;0.00;0.00;;;-0.10;99.90;;;;;;5052516;28;20244;-68
2022/12/09 09:01:17;;;;;;;0.00;0.00;;;0.00;99.90;;;;;;5052565;28;20195;-69
2022/12/09 09:03:44;;;;;;;0.83;0.60;;;0.10;99.90;;;;;;5047963;28;20178;-69
2022/12/09 09:06:10;;;;;;;0.47;0.47;;;0.10;99.90;;;;;;5032473;28;20514;-69
2022/12/09 09:08:35;;;;;;;0.20;0.20;;;0.20;99.90;;;;;;5032730;28;20185;-69
2022/12/09 09:11:01;;;;;;;0.20;0.20;;;0.30;99.90;;;;;;5032270;28;20283;-69
2022/12/09 09:13:26;;;;;;;0.10;0.10;;;0.40;99.90;;;;;;5032472;28;20170;-69
2022/12/09 09:15:52;;;;;;;2.13;0.40;;;0.50;99.90;;;;;;5032364;28;20182;-69
2022/12/09 09:18:18;;;;;;;0.00;0.00;;;0.60;99.90;;;;;;5047698;28;20214;-69
2022/12/09 09:20:46;;;;;;;0.10;0.10;;;0.70;99.90;;;;;;5032541;28;20174;-68
2022/12/09 09:23:12;;;;;;;0.10;0.10;;;0.80;99.90;;;;;;5031677;28;20190;-69
2022/12/09 09:25:42;;;;;;;0.00;0.00;;;0.90;99.90;;;;;;5032332;28;20174;-69
2022/12/09 09:28:09;;;;;;;0.10;0.10;;;1.00;99.90;;;;;;5032551;28;20166;-69
2022/12/09 09:30:35;;;;;;;0.10;0.10;;;1.10;99.90;;;;;;5032021;28;20525;-69
2022/12/09 09:33:01;;;;;;;0.30;0.30;;;1.20;99.90;;;;;;5030889;28;20644;-69
2022/12/09 09:35:26;;;;;;;0.95;0.95;;;1.30;99.90;;;;;;5032206;28;20202;-69
2022/12/09 09:37:53;;;;;;;0.00;0.00;;;1.30;99.90;;;;;;5031955;28;20691;-69
2022/12/09 09:40:20;;;;;;;0.00;0.00;;;1.40;99.90;;;;;;5032186;28;20565;-69
2022/12/09 09:42:49;;;;;;;0.10;0.10;;;1.30;99.90;;;;;;5032105;28;20177;-69
2022/12/09 09:45:20;;;;;;;0.00;0.00;;;1.40;99.90;;;;;;5032016;28;20185;-69
2022/12/09 09:48:01;;;;;;;0.00;0.00;;;1.40;99.90;;;;;;5032212;28;20170;-69
2022/12/09 09:50:40;;;;;;;0.20;0.20;;;1.30;99.90;;;;;;5032077;28;20257;-69
2022/12/09 09:53:25;;;;;;;0.00;0.00;;;1.30;99.90;;;;;;5032141;28;20178;-69
2022/12/09 09:55:58;;;;;;;0.00;0.00;;;1.20;99.90;;;;;;5034768;28;20188;-68
2022/12/09 09:58:36;;;;;;;0.00;0.00;;;1.20;99.90;;;;;;5051777;28;20209;-69
2022/12/09 10:01:06;;;;;;;0.00;0.00;;;1.30;99.90;;;;;;5051894;28;20177;-69
2022/12/09 10:03:44;;;;;;;0.00;0.00;;;1.20;99.90;;;;;;5048713;28;20193;-69
2022/12/09 10:06:27;;;;;;;0.00;0.00;;;1.20;99.90;;;;;;5030696;28;20787;-69
2022/12/09 10:08:59;;;;;;;0.00;0.00;;;1.20;99.90;;;;;;5031758;28;20236;-69
2022/12/09 10:11:40;;;;;;;0.10;0.10;;;1.30;99.90;;;;;;5033453;28;20389;-70
2022/12/09 10:14:18;;;;;;;0.10;0.10;;;1.30;99.90;;;;;;5051002;28;20181;-66
2022/12/09 10:16:46;;;;;;;0.00;0.00;;;1.30;99.90;;;;;;5051683;28;20181;-67
2022/12/09 10:19:11;;;;;;;0.10;0.10;;;1.30;99.90;;;;;;5051432;28;20551;-65
2022/12/09 10:21:41;;;;;;;0.20;0.20;;;1.40;99.90;;;;;;5051595;28;20180;-63
2022/12/09 10:24:26;;;;;;;0.00;0.00;;;1.40;99.90;;;;;;5051608;28;20173;-64
2022/12/09 10:26:56;;;;;;;0.20;0.20;;;1.50;99.90;;;;;;5051520;28;20193;-67
2022/12/09 10:29:56;;;;;;;0.30;0.30;;;1.50;99.90;;;;;;5052784;28;20267;-65
2022/12/09 10:32:25;;;;;;;0.00;0.00;;;1.50;99.90;;;;;;5051368;28;20177;-67
2022/12/09 10:34:51;;;;;;;0.00;0.00;;;1.60;99.90;;;;;;5054021;28;20228;-67
2022/12/09 10:37:30;;;;;;;0.50;0.50;;;1.50;99.90;;;;;;5054726;28;20181;-67
2022/12/09 10:40:02;;;;;;;0.10;0.10;;;1.60;99.90;;;;;;5054427;28;20595;-67
2022/12/09 10:45:14;;;;;;;0.03;0.03;;;1.60;99.90;;;;;;5054643;28;20188;-67
2022/12/09 10:47:47;;;;;;;0.30;0.30;;;1.60;99.90;;;;;;5054320;28;20533;-67
2022/12/09 10:50:32;;;;;;;0.05;0.05;;;1.60;99.90;;;;;;5054264;28;20170;-67
2022/12/09 10:53:10;;;;;;;0.10;0.10;;;1.60;99.90;;;;;;5053224;28;20526;-67
2022/12/09 10:55:39;;;;;;;1.02;0.70;;;1.70;99.90;;;;;;5053369;28;21453;-67
2022/12/09 10:58:25;;;;;;;0.00;0.00;;;1.70;99.90;;;;;;5040878;28;20216;-67
2022/12/09 11:01:10;;;;;;;0.20;0.20;;;1.70;99.90;;;;;;5054370;28;20629;-67
2022/12/09 11:03:52;;;;;;;0.00;0.00;;;1.80;99.90;;;;;;5053649;28;20170;-67
2022/12/09 11:06:31;;;;;;;0.00;0.00;;;1.90;99.90;;;;;;5054270;28;20173;-67
2022/12/09 11:09:01;;;;;;;0.20;0.20;;;1.90;99.90;;;;;;5054219;28;20178;-67
2022/12/09 11:11:42;;;;;;;0.00;0.00;;;1.90;99.90;;;;;;5053729;28;20233;-67
2022/12/09 11:14:33;;;;;;;0.00;0.00;;;2.00;99.90;;;;;;5054176;28;20185;-67
2022/12/09 11:17:15;;;;;;;0.03;0.03;;;2.00;99.90;;;;;;5052409;28;20179;-67
2022/12/09 11:19:42;;;;;;;0.00;0.00;;;2.00;99.90;;;;;;5054301;28;20220;-68
2022/12/09 11:22:43;;;;;;;0.20;0.20;;;2.10;99.90;;;;;;5053946;28;20196;-67
2022/12/09 11:25:12;;;;;;;0.00;0.00;;;2.20;99.90;;;;;;5054607;28;20189;-66
2022/12/09 11:27:52;;;;;;;0.00;0.00;;;2.30;99.90;;;;;;5054212;28;20236;-67
2022/12/09 11:30:26;;;;;;;0.00;0.00;;;2.40;99.90;;;;;;5054317;28;20655;-67
2022/12/09 11:33:00;;;;;;;0.40;0.20;;;2.50;99.90;;;;;;5054126;28;20164;-67
2022/12/09 11:35:43;;;;;;;0.00;0.00;;;2.50;99.90;;;;;;5052784;28;20531;-67
2022/12/09 11:38:34;;;;;;;0.00;0.00;;;2.60;99.90;;;;;;5052473;28;20204;-67
2022/12/09 11:41:11;;;;;;;0.10;0.10;;;2.70;99.90;;;;;;5053695;28;20544;-67
2022/12/09 11:43:55;;;;;;;0.10;0.10;;;2.70;99.90;;;;;;5053287;28;20177;-67
2022/12/09 11:46:25;;;;;;;0.15;0.13;;;2.80;99.90;;;;;;5052831;28;20174;-67
2022/12/09 11:49:04;;;;;;;0.00;0.00;;;2.90;99.90;;;;;;5053542;28;20174;-67
2022/12/09 11:51:36;;;;;;;0.20;0.20;;;2.90;99.90;;;;;;5052944;28;20542;-66
2022/12/09 11:54:13;;;;;;;0.00;0.00;;;2.90;99.90;;;;;;5052208;28;20211;-67
2022/12/09 11:56:40;;;;;;;0.00;0.00;;;3.00;99.90;;;;;;5053287;28;20200;-67
2022/12/09 11:59:13;;;;;;;0.32;0.32;;;3.00;99.90;;;;;;5053181;28;20703;-67
2022/12/09 12:02:03;;;;;;;0.00;0.00;;;3.00;99.90;;;;;;5052346;28;20181;-67
2022/12/09 12:04:47;;;;;;;0.40;0.40;;;3.00;99.90;;;;;;5053151;28;20196;-67
2022/12/09 12:07:37;;;;;;;0.60;0.60;;;2.90;99.90;;;;;;5053034;28;20180;-67
2022/12/09 12:10:08;;;;;;;0.05;0.05;;;2.80;99.90;;;;;;5053413;28;20185;-67
2022/12/09 12:12:45;;;;;;;0.17;0.17;;;2.80;99.90;;;;;;5053117;28;20253;-70
2022/12/09 12:15:21;;;;;;;0.00;0.00;;;2.80;99.90;;;;;;5052337;28;20181;-68
2022/12/09 12:17:51;;;;;;;0.00;0.00;;;2.80;99.90;;;;;;5052389;28;20236;-63
2022/12/09 12:20:16;;;;;;;0.10;0.10;;;2.80;99.90;;;;;;5052472;28;20174;-65
2022/12/09 12:22:48;;;;;;;0.20;0.20;;;2.80;99.90;;;;;;5052662;28;20180;-66
2022/12/09 12:25:41;;;;;;;0.00;0.00;;;2.80;99.90;;;;;;5052018;28;20730;-65
2022/12/09 12:28:06;;;;;;;0.10;0.10;;;2.90;99.90;;;;;;5050163;28;20260;-68
2022/12/09 12:30:55;;;;;;;0.00;0.00;;;2.90;99.90;;;;;;5052982;28;20264;-68
2022/12/09 12:33:40;;;;;;;0.00;0.00;;;2.90;99.90;;;;;;5051729;28;20169;-69
2022/12/09 12:36:25;;;;;;;0.00;0.00;;;3.00;99.90;;;;;;5052930;28;20192;-68
2022/12/09 12:38:59;;;;;;;0.08;0.08;;;3.00;99.90;;;;;;5052496;28;20228;-68
2022/12/09 12:41:50;;;;;;;0.00;0.00;;;3.00;99.90;;;;;;5051656;28;20726;-68
2022/12/09 12:47:50;;;;;;;0.55;0.28;;;3.00;99.90;;;;;;5046487;28;20232;-68
2022/12/09 12:50:34;;;;;;;0.00;0.00;;;3.00;99.90;;;;;;5036582;28;20173;-68
2022/12/09 12:53:24;;;;;;;0.10;0.10;;;3.00;99.90;;;;;;5051538;28;20180;-68
2022/12/09 12:56:44;;;;;;;0.00;0.00;;;3.00;99.90;;;;;;5049671;28;20190;-68
2022/12/09 12:59:31;;;;;;;0.00;0.00;;;3.00;99.90;;;;;;5047926;28;20672;-68
2022/12/09 13:02:06;;;;;;;0.10;0.10;;;3.00;99.90;;;;;;5052429;28;20185;-68
2022/12/09 13:04:47;;;;;;;0.00;0.00;;;3.10;99.90;;;;;;5041263;28;20416;-68
2022/12/09 13:07:39;;;;;;;0.25;0.25;;;3.10;99.90;;;;;;5032505;28;20679;-68
2022/12/09 13:10:33;;;;;;;0.00;0.00;;;3.20;99.90;;;;;;5049988;28;20361;-68
2022/12/09 13:13:01;;;;;;;0.00;0.00;;;3.20;99.90;;;;;;5049195;28;20232;-68